sensor_id;sensor_type;location;lat;lon;timestamp;P1;durP1;ratioP1;P2;durP2;ratioP2
66628;SDS011;53532;53.084;6.352;2022-09-03T00:01:12;6.88;;;2.25;;
66628;SDS011;53532;53.084;6.352;2022-09-03T00:03:41;6.28;;;2.10;;
66628;SDS011;53532;53.084;6.352;2022-09-03T00:06:10;8.30;;;2.17;;
66628;SDS011;53532;53.084;6.352;2022-09-03T00:08:38;6.75;;;1.95;;
66628;SDS011;53532;53.084;6.352;2022-09-03T00:11:09;5.60;;;2.13;;
66628;SDS011;53532;53.084;6.352;2022-09-03T00:13:37;6.43;;;2.50;;
66628;SDS011;53532;53.084;6.352;2022-09-03T00:16:05;8.85;;;2.60;;
66628;SDS011;53532;53.084;6.352;2022-09-03T00:18:40;5.03;;;2.70;;
66628;SDS011;53532;53.084;6.352;2022-09-03T00:21:08;7.25;;;2.72;;
66628;SDS011;53532;53.084;6.352;2022-09-03T00:23:37;6.68;;;2.70;;
66628;SDS011;53532;53.084;6.352;2022-09-03T00:26:05;9.85;;;2.88;;
66628;SDS011;53532;53.084;6.352;2022-09-03T00:28:33;4.75;;;2.47;;
66628;SDS011;53532;53.084;6.352;2022-09-03T00:31:04;5.10;;;2.38;;
66628;SDS011;53532;53.084;6.352;2022-09-03T00:33:31;9.70;;;2.70;;
66628;SDS011;53532;53.084;6.352;2022-09-03T00:36:03;5.00;;;2.40;;
66628;SDS011;53532;53.084;6.352;2022-09-03T00:38:31;4.40;;;2.45;;
66628;SDS011;53532;53.084;6.352;2022-09-03T00:41:03;7.60;;;2.55;;
66628;SDS011;53532;53.084;6.352;2022-09-03T00:43:36;6.78;;;2.60;;
66628;SDS011;53532;53.084;6.352;2022-09-03T00:46:05;4.45;;;2.20;;
66628;SDS011;53532;53.084;6.352;2022-09-03T00:48:37;5.07;;;2.30;;
66628;SDS011;53532;53.084;6.352;2022-09-03T00:51:12;6.18;;;2.40;;
66628;SDS011;53532;53.084;6.352;2022-09-03T00:53:42;2.85;;;2.00;;
66628;SDS011;53532;53.084;6.352;2022-09-03T00:56:18;6.82;;;1.92;;
66628;SDS011;53532;53.084;6.352;2022-09-03T00:58:53;4.20;;;2.05;;
66628;SDS011;53532;53.084;6.352;2022-09-03T01:01:23;5.43;;;2.20;;
66628;SDS011;53532;53.084;6.352;2022-09-03T01:03:53;5.05;;;2.25;;
66628;SDS011;53532;53.084;6.352;2022-09-03T01:06:26;4.47;;;1.90;;
66628;SDS011;53532;53.084;6.352;2022-09-03T01:08:59;7.15;;;2.22;;
66628;SDS011;53532;53.084;6.352;2022-09-03T01:11:29;5.55;;;2.10;;
66628;SDS011;53532;53.084;6.352;2022-09-03T01:14:00;5.47;;;2.17;;
66628;SDS011;53532;53.084;6.352;2022-09-03T01:16:28;4.88;;;2.10;;
66628;SDS011;53532;53.084;6.352;2022-09-03T01:18:57;6.60;;;2.20;;
66628;SDS011;53532;53.084;6.352;2022-09-03T01:21:32;4.93;;;2.00;;
66628;SDS011;53532;53.084;6.352;2022-09-03T01:24:07;4.60;;;2.55;;
66628;SDS011;53532;53.084;6.352;2022-09-03T01:29:28;4.30;;;2.50;;
66628;SDS011;53532;53.084;6.352;2022-09-03T01:32:00;4.65;;;2.40;;
66628;SDS011;53532;53.084;6.352;2022-09-03T01:34:32;5.70;;;2.47;;
66628;SDS011;53532;53.084;6.352;2022-09-03T01:37:04;5.40;;;2.47;;
66628;SDS011;53532;53.084;6.352;2022-09-03T01:39:34;6.35;;;2.50;;
66628;SDS011;53532;53.084;6.352;2022-09-03T01:42:07;5.03;;;2.67;;
66628;SDS011;53532;53.084;6.352;2022-09-03T01:44:45;5.10;;;2.50;;
66628;SDS011;53532;53.084;6.352;2022-09-03T01:47:17;6.43;;;2.40;;
66628;SDS011;53532;53.084;6.352;2022-09-03T01:49:48;5.40;;;2.50;;
66628;SDS011;53532;53.084;6.352;2022-09-03T01:52:18;3.33;;;2.30;;
66628;SDS011;53532;53.084;6.352;2022-09-03T01:54:48;7.15;;;2.55;;
66628;SDS011;53532;53.084;6.352;2022-09-03T01:57:23;5.97;;;2.75;;
66628;SDS011;53532;53.084;6.352;2022-09-03T01:59:54;5.80;;;2.65;;
66628;SDS011;53532;53.084;6.352;2022-09-03T02:02:23;3.13;;;2.22;;
66628;SDS011;53532;53.084;6.352;2022-09-03T02:04:59;5.38;;;2.60;;
66628;SDS011;53532;53.084;6.352;2022-09-03T02:07:27;6.45;;;2.50;;
66628;SDS011;53532;53.084;6.352;2022-09-03T02:09:57;4.22;;;2.20;;
66628;SDS011;53532;53.084;6.352;2022-09-03T02:12:24;5.00;;;2.25;;
66628;SDS011;53532;53.084;6.352;2022-09-03T02:14:50;4.55;;;2.20;;
66628;SDS011;53532;53.084;6.352;2022-09-03T02:17:18;6.53;;;2.30;;
66628;SDS011;53532;53.084;6.352;2022-09-03T02:19:44;4.85;;;2.40;;
66628;SDS011;53532;53.084;6.352;2022-09-03T02:22:11;3.92;;;2.10;;
66628;SDS011;53532;53.084;6.352;2022-09-03T02:24:37;5.20;;;2.10;;
66628;SDS011;53532;53.084;6.352;2022-09-03T02:27:04;5.53;;;2.60;;
66628;SDS011;53532;53.084;6.352;2022-09-03T02:29:30;5.57;;;2.20;;
66628;SDS011;53532;53.084;6.352;2022-09-03T02:31:57;5.75;;;2.50;;
66628;SDS011;53532;53.084;6.352;2022-09-03T02:34:25;4.15;;;2.22;;
66628;SDS011;53532;53.084;6.352;2022-09-03T02:36:51;6.07;;;2.13;;
66628;SDS011;53532;53.084;6.352;2022-09-03T02:39:18;5.30;;;2.70;;
66628;SDS011;53532;53.084;6.352;2022-09-03T02:41:49;4.82;;;2.40;;
66628;SDS011;53532;53.084;6.352;2022-09-03T02:44:17;6.38;;;2.80;;
66628;SDS011;53532;53.084;6.352;2022-09-03T02:46:50;5.65;;;2.60;;
66628;SDS011;53532;53.084;6.352;2022-09-03T02:49:18;6.47;;;2.97;;
66628;SDS011;53532;53.084;6.352;2022-09-03T02:51:46;6.13;;;3.00;;
66628;SDS011;53532;53.084;6.352;2022-09-03T02:54:12;4.78;;;3.00;;
66628;SDS011;53532;53.084;6.352;2022-09-03T02:56:38;5.82;;;2.50;;
66628;SDS011;53532;53.084;6.352;2022-09-03T02:59:05;5.38;;;2.72;;
66628;SDS011;53532;53.084;6.352;2022-09-03T03:01:32;5.68;;;2.70;;
66628;SDS011;53532;53.084;6.352;2022-09-03T03:03:58;6.53;;;2.90;;
66628;SDS011;53532;53.084;6.352;2022-09-03T03:06:24;4.78;;;2.55;;
66628;SDS011;53532;53.084;6.352;2022-09-03T03:08:52;4.20;;;2.80;;
66628;SDS011;53532;53.084;6.352;2022-09-03T03:11:20;4.63;;;2.70;;
66628;SDS011;53532;53.084;6.352;2022-09-03T03:13:47;4.63;;;2.60;;
66628;SDS011;53532;53.084;6.352;2022-09-03T03:16:13;3.90;;;2.55;;
66628;SDS011;53532;53.084;6.352;2022-09-03T03:18:40;6.15;;;2.70;;
66628;SDS011;53532;53.084;6.352;2022-09-03T03:21:08;6.78;;;2.60;;
66628;SDS011;53532;53.084;6.352;2022-09-03T03:23:35;7.30;;;2.55;;
66628;SDS011;53532;53.084;6.352;2022-09-03T03:26:03;7.10;;;3.00;;
66628;SDS011;53532;53.084;6.352;2022-09-03T03:28:29;6.20;;;2.80;;
66628;SDS011;53532;53.084;6.352;2022-09-03T03:30:57;5.45;;;2.85;;
66628;SDS011;53532;53.084;6.352;2022-09-03T03:33:23;5.30;;;2.58;;
66628;SDS011;53532;53.084;6.352;2022-09-03T03:35:50;4.05;;;2.38;;
66628;SDS011;53532;53.084;6.352;2022-09-03T03:38:16;6.07;;;2.80;;
66628;SDS011;53532;53.084;6.352;2022-09-03T03:40:43;6.78;;;2.90;;
66628;SDS011;53532;53.084;6.352;2022-09-03T03:43:10;7.07;;;2.78;;
66628;SDS011;53532;53.084;6.352;2022-09-03T03:45:36;4.68;;;2.80;;
66628;SDS011;53532;53.084;6.352;2022-09-03T03:48:02;4.78;;;2.53;;
66628;SDS011;53532;53.084;6.352;2022-09-03T03:50:29;7.35;;;3.00;;
66628;SDS011;53532;53.084;6.352;2022-09-03T03:52:58;4.35;;;2.70;;
66628;SDS011;53532;53.084;6.352;2022-09-03T03:55:25;5.00;;;3.00;;
66628;SDS011;53532;53.084;6.352;2022-09-03T03:57:51;6.28;;;2.70;;
66628;SDS011;53532;53.084;6.352;2022-09-03T04:00:18;5.07;;;2.47;;
66628;SDS011;53532;53.084;6.352;2022-09-03T04:02:44;5.50;;;2.63;;
66628;SDS011;53532;53.084;6.352;2022-09-03T04:05:11;5.13;;;3.03;;
66628;SDS011;53532;53.084;6.352;2022-09-03T04:07:37;4.80;;;2.58;;
66628;SDS011;53532;53.084;6.352;2022-09-03T04:10:04;5.90;;;2.83;;
66628;SDS011;53532;53.084;6.352;2022-09-03T04:12:30;5.47;;;2.80;;
66628;SDS011;53532;53.084;6.352;2022-09-03T04:14:57;4.90;;;2.70;;
66628;SDS011;53532;53.084;6.352;2022-09-03T04:17:24;5.80;;;2.90;;
66628;SDS011;53532;53.084;6.352;2022-09-03T04:19:50;6.45;;;2.70;;
66628;SDS011;53532;53.084;6.352;2022-09-03T04:22:17;5.00;;;2.90;;
66628;SDS011;53532;53.084;6.352;2022-09-03T04:24:44;6.57;;;2.90;;
66628;SDS011;53532;53.084;6.352;2022-09-03T04:27:10;4.15;;;2.65;;
66628;SDS011;53532;53.084;6.352;2022-09-03T04:29:37;5.40;;;2.78;;
66628;SDS011;53532;53.084;6.352;2022-09-03T04:32:03;5.10;;;3.00;;
66628;SDS011;53532;53.084;6.352;2022-09-03T04:34:49;6.55;;;2.78;;
66628;SDS011;53532;53.084;6.352;2022-09-03T04:37:15;5.30;;;2.95;;
66628;SDS011;53532;53.084;6.352;2022-09-03T04:39:43;5.57;;;2.85;;
66628;SDS011;53532;53.084;6.352;2022-09-03T04:42:10;5.97;;;2.67;;
66628;SDS011;53532;53.084;6.352;2022-09-03T04:44:36;9.18;;;3.40;;
66628;SDS011;53532;53.084;6.352;2022-09-03T04:47:02;5.30;;;2.78;;
66628;SDS011;53532;53.084;6.352;2022-09-03T04:49:28;7.43;;;2.90;;
66628;SDS011;53532;53.084;6.352;2022-09-03T04:51:56;4.95;;;3.13;;
66628;SDS011;53532;53.084;6.352;2022-09-03T04:54:22;5.35;;;3.00;;
66628;SDS011;53532;53.084;6.352;2022-09-03T04:56:48;6.57;;;2.85;;
66628;SDS011;53532;53.084;6.352;2022-09-03T04:59:14;7.28;;;3.40;;
66628;SDS011;53532;53.084;6.352;2022-09-03T05:01:41;7.72;;;3.40;;
66628;SDS011;53532;53.084;6.352;2022-09-03T05:04:08;5.95;;;3.25;;
66628;SDS011;53532;53.084;6.352;2022-09-03T05:06:34;5.88;;;3.30;;
66628;SDS011;53532;53.084;6.352;2022-09-03T05:09:03;9.18;;;3.65;;
66628;SDS011;53532;53.084;6.352;2022-09-03T05:11:29;5.55;;;3.05;;
66628;SDS011;53532;53.084;6.352;2022-09-03T05:13:56;6.80;;;3.20;;
66628;SDS011;53532;53.084;6.352;2022-09-03T05:16:23;5.82;;;2.83;;
66628;SDS011;53532;53.084;6.352;2022-09-03T05:18:50;6.43;;;3.20;;
66628;SDS011;53532;53.084;6.352;2022-09-03T05:21:18;6.60;;;3.25;;
66628;SDS011;53532;53.084;6.352;2022-09-03T05:23:44;6.15;;;3.03;;
66628;SDS011;53532;53.084;6.352;2022-09-03T05:26:13;7.20;;;3.45;;
66628;SDS011;53532;53.084;6.352;2022-09-03T05:28:41;6.45;;;3.03;;
66628;SDS011;53532;53.084;6.352;2022-09-03T05:31:08;9.93;;;3.60;;
66628;SDS011;53532;53.084;6.352;2022-09-03T05:33:34;7.07;;;3.47;;
66628;SDS011;53532;53.084;6.352;2022-09-03T05:36:01;6.53;;;3.35;;
66628;SDS011;53532;53.084;6.352;2022-09-03T05:38:27;6.85;;;3.20;;
66628;SDS011;53532;53.084;6.352;2022-09-03T05:40:56;6.38;;;3.35;;
66628;SDS011;53532;53.084;6.352;2022-09-03T05:43:24;6.80;;;3.42;;
66628;SDS011;53532;53.084;6.352;2022-09-03T05:45:50;5.90;;;3.42;;
66628;SDS011;53532;53.084;6.352;2022-09-03T05:48:16;5.85;;;2.90;;
66628;SDS011;53532;53.084;6.352;2022-09-03T05:50:43;5.75;;;3.00;;
66628;SDS011;53532;53.084;6.352;2022-09-03T05:53:09;6.18;;;3.42;;
66628;SDS011;53532;53.084;6.352;2022-09-03T05:55:35;6.10;;;3.28;;
66628;SDS011;53532;53.084;6.352;2022-09-03T05:58:01;7.75;;;3.40;;
66628;SDS011;53532;53.084;6.352;2022-09-03T06:00:28;4.82;;;3.20;;
66628;SDS011;53532;53.084;6.352;2022-09-03T06:02:54;6.30;;;3.17;;
66628;SDS011;53532;53.084;6.352;2022-09-03T06:05:22;7.60;;;3.40;;
66628;SDS011;53532;53.084;6.352;2022-09-03T06:07:48;6.80;;;3.50;;
66628;SDS011;53532;53.084;6.352;2022-09-03T06:10:14;5.45;;;3.20;;
66628;SDS011;53532;53.084;6.352;2022-09-03T06:12:41;7.00;;;3.58;;
66628;SDS011;53532;53.084;6.352;2022-09-03T06:15:14;7.13;;;3.60;;
66628;SDS011;53532;53.084;6.352;2022-09-03T06:17:41;5.38;;;3.10;;
66628;SDS011;53532;53.084;6.352;2022-09-03T06:20:08;6.93;;;3.70;;
66628;SDS011;53532;53.084;6.352;2022-09-03T06:22:34;5.78;;;3.55;;
66628;SDS011;53532;53.084;6.352;2022-09-03T06:25:00;7.40;;;3.70;;
66628;SDS011;53532;53.084;6.352;2022-09-03T06:27:27;9.25;;;3.45;;
66628;SDS011;53532;53.084;6.352;2022-09-03T06:29:53;5.97;;;3.42;;
66628;SDS011;53532;53.084;6.352;2022-09-03T06:32:23;7.13;;;3.58;;
66628;SDS011;53532;53.084;6.352;2022-09-03T06:34:51;7.55;;;3.78;;
66628;SDS011;53532;53.084;6.352;2022-09-03T06:37:17;6.93;;;3.30;;
66628;SDS011;53532;53.084;6.352;2022-09-03T06:39:43;7.38;;;3.55;;
66628;SDS011;53532;53.084;6.352;2022-09-03T06:42:10;6.88;;;3.67;;
66628;SDS011;53532;53.084;6.352;2022-09-03T06:44:37;7.15;;;3.60;;
66628;SDS011;53532;53.084;6.352;2022-09-03T06:47:03;7.72;;;3.30;;
66628;SDS011;53532;53.084;6.352;2022-09-03T06:49:29;7.28;;;3.50;;
66628;SDS011;53532;53.084;6.352;2022-09-03T06:51:57;6.78;;;3.42;;
66628;SDS011;53532;53.084;6.352;2022-09-03T06:54:23;7.40;;;3.65;;
66628;SDS011;53532;53.084;6.352;2022-09-03T06:56:50;6.72;;;3.08;;
66628;SDS011;53532;53.084;6.352;2022-09-03T06:59:16;8.07;;;3.58;;
66628;SDS011;53532;53.084;6.352;2022-09-03T07:01:42;5.38;;;3.25;;
66628;SDS011;53532;53.084;6.352;2022-09-03T07:04:09;6.07;;;3.30;;
66628;SDS011;53532;53.084;6.352;2022-09-03T07:06:37;8.00;;;3.33;;
66628;SDS011;53532;53.084;6.352;2022-09-03T07:09:05;5.50;;;3.30;;
66628;SDS011;53532;53.084;6.352;2022-09-03T07:11:32;8.20;;;3.60;;
66628;SDS011;53532;53.084;6.352;2022-09-03T07:14:00;6.95;;;3.45;;
66628;SDS011;53532;53.084;6.352;2022-09-03T07:16:27;6.13;;;3.22;;
66628;SDS011;53532;53.084;6.352;2022-09-03T07:18:53;7.65;;;3.78;;
66628;SDS011;53532;53.084;6.352;2022-09-03T07:21:21;7.03;;;3.28;;
66628;SDS011;53532;53.084;6.352;2022-09-03T07:23:48;5.90;;;3.13;;
66628;SDS011;53532;53.084;6.352;2022-09-03T07:26:18;7.40;;;3.30;;
66628;SDS011;53532;53.084;6.352;2022-09-03T07:28:45;6.43;;;3.30;;
66628;SDS011;53532;53.084;6.352;2022-09-03T07:31:12;6.95;;;3.47;;
66628;SDS011;53532;53.084;6.352;2022-09-03T07:33:39;5.65;;;2.97;;
66628;SDS011;53532;53.084;6.352;2022-09-03T07:36:06;8.18;;;3.35;;
66628;SDS011;53532;53.084;6.352;2022-09-03T07:38:32;6.28;;;2.97;;
66628;SDS011;53532;53.084;6.352;2022-09-03T07:40:59;9.48;;;3.17;;
66628;SDS011;53532;53.084;6.352;2022-09-03T07:43:27;8.02;;;3.08;;
66628;SDS011;53532;53.084;6.352;2022-09-03T07:45:53;9.00;;;3.20;;
66628;SDS011;53532;53.084;6.352;2022-09-03T07:48:21;8.80;;;3.25;;
66628;SDS011;53532;53.084;6.352;2022-09-03T07:50:47;7.68;;;3.10;;
66628;SDS011;53532;53.084;6.352;2022-09-03T07:53:14;8.65;;;2.80;;
66628;SDS011;53532;53.084;6.352;2022-09-03T07:55:41;6.63;;;2.80;;
66628;SDS011;53532;53.084;6.352;2022-09-03T07:58:08;8.88;;;2.83;;
66628;SDS011;53532;53.084;6.352;2022-09-03T08:00:37;5.32;;;2.92;;
66628;SDS011;53532;53.084;6.352;2022-09-03T08:03:04;5.80;;;2.85;;
66628;SDS011;53532;53.084;6.352;2022-09-03T08:05:32;11.50;;;2.80;;
66628;SDS011;53532;53.084;6.352;2022-09-03T08:07:59;7.80;;;3.00;;
66628;SDS011;53532;53.084;6.352;2022-09-03T08:10:25;6.78;;;2.83;;
66628;SDS011;53532;53.084;6.352;2022-09-03T08:12:54;7.05;;;3.13;;
66628;SDS011;53532;53.084;6.352;2022-09-03T08:15:20;8.13;;;3.00;;
66628;SDS011;53532;53.084;6.352;2022-09-03T08:17:48;9.18;;;2.85;;
66628;SDS011;53532;53.084;6.352;2022-09-03T08:20:14;7.00;;;3.10;;
66628;SDS011;53532;53.084;6.352;2022-09-03T08:22:40;8.02;;;2.92;;
66628;SDS011;53532;53.084;6.352;2022-09-03T08:25:06;10.52;;;2.85;;
66628;SDS011;53532;53.084;6.352;2022-09-03T08:27:33;7.60;;;2.65;;
66628;SDS011;53532;53.084;6.352;2022-09-03T08:29:59;5.07;;;2.58;;
66628;SDS011;53532;53.084;6.352;2022-09-03T08:32:27;9.07;;;2.70;;
66628;SDS011;53532;53.084;6.352;2022-09-03T08:34:55;6.28;;;2.63;;
66628;SDS011;53532;53.084;6.352;2022-09-03T08:37:21;8.57;;;2.70;;
66628;SDS011;53532;53.084;6.352;2022-09-03T08:39:51;7.75;;;2.65;;
66628;SDS011;53532;53.084;6.352;2022-09-03T08:42:24;6.32;;;2.58;;
66628;SDS011;53532;53.084;6.352;2022-09-03T08:44:52;6.72;;;2.70;;
66628;SDS011;53532;53.084;6.352;2022-09-03T08:47:21;8.27;;;2.40;;
66628;SDS011;53532;53.084;6.352;2022-09-03T08:49:49;7.47;;;2.63;;
66628;SDS011;53532;53.084;6.352;2022-09-03T08:52:23;6.95;;;2.50;;
66628;SDS011;53532;53.084;6.352;2022-09-03T08:54:50;8.52;;;2.75;;
66628;SDS011;53532;53.084;6.352;2022-09-03T08:57:17;10.27;;;2.50;;
66628;SDS011;53532;53.084;6.352;2022-09-03T08:59:44;6.93;;;2.50;;
66628;SDS011;53532;53.084;6.352;2022-09-03T09:02:14;6.18;;;2.15;;
66628;SDS011;53532;53.084;6.352;2022-09-03T09:04:46;8.68;;;2.60;;
66628;SDS011;53532;53.084;6.352;2022-09-03T09:07:24;8.07;;;2.65;;
66628;SDS011;53532;53.084;6.352;2022-09-03T09:09:54;6.63;;;2.63;;
66628;SDS011;53532;53.084;6.352;2022-09-03T09:12:28;5.70;;;2.47;;
66628;SDS011;53532;53.084;6.352;2022-09-03T09:15:02;8.27;;;2.40;;
66628;SDS011;53532;53.084;6.352;2022-09-03T09:17:33;8.18;;;2.50;;
66628;SDS011;53532;53.084;6.352;2022-09-03T09:20:04;8.25;;;2.47;;
66628;SDS011;53532;53.084;6.352;2022-09-03T09:22:35;5.85;;;2.10;;
66628;SDS011;53532;53.084;6.352;2022-09-03T09:27:29;18.55;;;2.60;;
66628;SDS011;53532;53.084;6.352;2022-09-03T09:29:57;5.88;;;2.17;;
66628;SDS011;53532;53.084;6.352;2022-09-03T09:32:26;11.05;;;2.67;;
66628;SDS011;53532;53.084;6.352;2022-09-03T09:34:52;7.75;;;2.40;;
66628;SDS011;53532;53.084;6.352;2022-09-03T09:37:19;6.22;;;2.28;;
66628;SDS011;53532;53.084;6.352;2022-09-03T09:39:54;10.32;;;2.60;;
66628;SDS011;53532;53.084;6.352;2022-09-03T09:42:22;4.82;;;2.28;;
66628;SDS011;53532;53.084;6.352;2022-09-03T09:44:48;6.18;;;2.30;;
66628;SDS011;53532;53.084;6.352;2022-09-03T09:47:15;8.07;;;2.38;;
66628;SDS011;53532;53.084;6.352;2022-09-03T09:52:12;5.60;;;2.05;;
66628;SDS011;53532;53.084;6.352;2022-09-03T09:54:39;6.70;;;2.25;;
66628;SDS011;53532;53.084;6.352;2022-09-03T09:57:12;5.50;;;2.08;;
66628;SDS011;53532;53.084;6.352;2022-09-03T09:59:42;6.50;;;2.83;;
66628;SDS011;53532;53.084;6.352;2022-09-03T10:02:11;4.55;;;2.10;;
66628;SDS011;53532;53.084;6.352;2022-09-03T10:04:37;6.55;;;2.17;;
66628;SDS011;53532;53.084;6.352;2022-09-03T10:09:56;3.83;;;2.08;;
66628;SDS011;53532;53.084;6.352;2022-09-03T10:12:24;5.93;;;2.30;;
66628;SDS011;53532;53.084;6.352;2022-09-03T10:14:54;5.53;;;2.13;;
66628;SDS011;53532;53.084;6.352;2022-09-03T10:17:23;4.78;;;1.95;;
66628;SDS011;53532;53.084;6.352;2022-09-03T10:19:55;6.00;;;2.15;;
66628;SDS011;53532;53.084;6.352;2022-09-03T10:22:42;5.05;;;1.95;;
66628;SDS011;53532;53.084;6.352;2022-09-03T10:25:10;5.82;;;1.90;;
66628;SDS011;53532;53.084;6.352;2022-09-03T10:27:40;6.10;;;2.00;;
66628;SDS011;53532;53.084;6.352;2022-09-03T10:32:37;7.72;;;2.20;;
66628;SDS011;53532;53.084;6.352;2022-09-03T10:35:05;3.33;;;1.95;;
66628;SDS011;53532;53.084;6.352;2022-09-03T10:37:37;6.03;;;2.13;;
66628;SDS011;53532;53.084;6.352;2022-09-03T10:42:56;6.15;;;2.00;;
66628;SDS011;53532;53.084;6.352;2022-09-03T10:45:28;4.70;;;1.90;;
66628;SDS011;53532;53.084;6.352;2022-09-03T10:48:10;4.00;;;1.75;;
66628;SDS011;53532;53.084;6.352;2022-09-03T10:50:43;6.18;;;2.20;;
66628;SDS011;53532;53.084;6.352;2022-09-03T10:53:13;5.43;;;2.05;;
66628;SDS011;53532;53.084;6.352;2022-09-03T10:55:46;4.95;;;1.90;;
66628;SDS011;53532;53.084;6.352;2022-09-03T10:58:24;8.05;;;2.00;;
66628;SDS011;53532;53.084;6.352;2022-09-03T11:00:53;6.70;;;2.00;;
66628;SDS011;53532;53.084;6.352;2022-09-03T11:03:29;9.13;;;2.30;;
66628;SDS011;53532;53.084;6.352;2022-09-03T11:06:00;5.47;;;2.08;;
66628;SDS011;53532;53.084;6.352;2022-09-03T11:08:29;5.97;;;2.03;;
66628;SDS011;53532;53.084;6.352;2022-09-03T11:10:59;6.00;;;1.90;;
66628;SDS011;53532;53.084;6.352;2022-09-03T11:13:31;4.10;;;1.90;;
66628;SDS011;53532;53.084;6.352;2022-09-03T11:16:00;3.88;;;1.75;;
66628;SDS011;53532;53.084;6.352;2022-09-03T11:18:30;6.60;;;2.05;;
66628;SDS011;53532;53.084;6.352;2022-09-03T11:20:59;6.03;;;1.90;;
66628;SDS011;53532;53.084;6.352;2022-09-03T11:23:29;3.75;;;1.90;;
66628;SDS011;53532;53.084;6.352;2022-09-03T11:26:00;4.68;;;1.80;;
66628;SDS011;53532;53.084;6.352;2022-09-03T11:28:31;6.88;;;1.80;;
66628;SDS011;53532;53.084;6.352;2022-09-03T11:31:13;5.10;;;2.00;;
66628;SDS011;53532;53.084;6.352;2022-09-03T11:33:42;6.00;;;2.17;;
66628;SDS011;53532;53.084;6.352;2022-09-03T11:36:10;4.63;;;1.73;;
66628;SDS011;53532;53.084;6.352;2022-09-03T11:38:36;5.93;;;2.05;;
66628;SDS011;53532;53.084;6.352;2022-09-03T11:41:10;4.35;;;1.80;;
66628;SDS011;53532;53.084;6.352;2022-09-03T11:43:39;6.20;;;1.70;;
66628;SDS011;53532;53.084;6.352;2022-09-03T11:46:08;9.13;;;2.00;;
66628;SDS011;53532;53.084;6.352;2022-09-03T11:48:37;2.72;;;1.83;;
66628;SDS011;53532;53.084;6.352;2022-09-03T11:51:14;4.93;;;1.98;;
66628;SDS011;53532;53.084;6.352;2022-09-03T11:53:51;5.40;;;2.20;;
66628;SDS011;53532;53.084;6.352;2022-09-03T11:56:18;5.13;;;2.03;;
66628;SDS011;53532;53.084;6.352;2022-09-03T11:58:46;7.03;;;2.10;;
66628;SDS011;53532;53.084;6.352;2022-09-03T12:01:14;5.07;;;1.90;;
66628;SDS011;53532;53.084;6.352;2022-09-03T12:03:43;4.20;;;1.70;;
66628;SDS011;53532;53.084;6.352;2022-09-03T12:06:16;7.20;;;2.08;;
66628;SDS011;53532;53.084;6.352;2022-09-03T12:11:40;5.30;;;1.80;;
66628;SDS011;53532;53.084;6.352;2022-09-03T12:14:19;6.70;;;2.45;;
66628;SDS011;53532;53.084;6.352;2022-09-03T12:19:34;6.32;;;1.92;;
66628;SDS011;53532;53.084;6.352;2022-09-03T12:22:01;6.25;;;1.90;;
66628;SDS011;53532;53.084;6.352;2022-09-03T12:24:28;5.35;;;1.80;;
66628;SDS011;53532;53.084;6.352;2022-09-03T12:26:57;4.03;;;1.88;;
66628;SDS011;53532;53.084;6.352;2022-09-03T12:29:26;6.03;;;1.80;;
66628;SDS011;53532;53.084;6.352;2022-09-03T12:31:54;6.10;;;1.95;;
66628;SDS011;53532;53.084;6.352;2022-09-03T12:34:21;5.43;;;2.10;;
66628;SDS011;53532;53.084;6.352;2022-09-03T12:36:48;5.65;;;1.98;;
66628;SDS011;53532;53.084;6.352;2022-09-03T12:39:16;4.85;;;1.90;;
66628;SDS011;53532;53.084;6.352;2022-09-03T12:41:51;4.68;;;2.10;;
66628;SDS011;53532;53.084;6.352;2022-09-03T12:44:23;4.38;;;2.00;;
66628;SDS011;53532;53.084;6.352;2022-09-03T12:47:00;4.88;;;2.00;;
66628;SDS011;53532;53.084;6.352;2022-09-03T12:49:26;5.88;;;2.10;;
66628;SDS011;53532;53.084;6.352;2022-09-03T12:51:57;5.30;;;1.90;;
66628;SDS011;53532;53.084;6.352;2022-09-03T12:54:24;4.60;;;1.70;;
66628;SDS011;53532;53.084;6.352;2022-09-03T12:56:52;8.18;;;2.10;;
66628;SDS011;53532;53.084;6.352;2022-09-03T12:59:19;4.63;;;1.92;;
66628;SDS011;53532;53.084;6.352;2022-09-03T13:01:47;5.38;;;2.10;;
66628;SDS011;53532;53.084;6.352;2022-09-03T13:04:19;3.47;;;1.90;;
66628;SDS011;53532;53.084;6.352;2022-09-03T13:06:47;3.50;;;2.03;;
66628;SDS011;53532;53.084;6.352;2022-09-03T13:09:14;6.95;;;2.03;;
66628;SDS011;53532;53.084;6.352;2022-09-03T13:11:41;7.07;;;2.13;;
66628;SDS011;53532;53.084;6.352;2022-09-03T13:14:08;6.20;;;2.10;;
66628;SDS011;53532;53.084;6.352;2022-09-03T13:16:47;6.80;;;2.05;;
66628;SDS011;53532;53.084;6.352;2022-09-03T13:19:21;5.22;;;2.00;;
66628;SDS011;53532;53.084;6.352;2022-09-03T13:21:53;4.30;;;1.83;;
66628;SDS011;53532;53.084;6.352;2022-09-03T13:24:27;5.15;;;1.95;;
66628;SDS011;53532;53.084;6.352;2022-09-03T13:27:04;4.90;;;1.88;;
66628;SDS011;53532;53.084;6.352;2022-09-03T13:29:40;3.70;;;1.90;;
66628;SDS011;53532;53.084;6.352;2022-09-03T13:32:14;5.35;;;2.17;;
66628;SDS011;53532;53.084;6.352;2022-09-03T13:34:47;6.10;;;2.00;;
66628;SDS011;53532;53.084;6.352;2022-09-03T13:37:17;4.93;;;1.80;;
66628;SDS011;53532;53.084;6.352;2022-09-03T13:42:12;4.82;;;1.80;;
66628;SDS011;53532;53.084;6.352;2022-09-03T13:44:43;4.07;;;1.80;;
66628;SDS011;53532;53.084;6.352;2022-09-03T13:47:11;3.72;;;2.13;;
66628;SDS011;53532;53.084;6.352;2022-09-03T13:49:48;4.88;;;1.85;;
66628;SDS011;53532;53.084;6.352;2022-09-03T13:52:37;3.80;;;1.80;;
66628;SDS011;53532;53.084;6.352;2022-09-03T13:55:07;5.20;;;1.83;;
66628;SDS011;53532;53.084;6.352;2022-09-03T13:57:36;3.53;;;2.00;;
66628;SDS011;53532;53.084;6.352;2022-09-03T14:00:05;4.18;;;1.83;;
66628;SDS011;53532;53.084;6.352;2022-09-03T14:02:49;5.93;;;2.07;;
66628;SDS011;53532;53.084;6.352;2022-09-03T14:05:18;6.85;;;1.85;;
66628;SDS011;53532;53.084;6.352;2022-09-03T14:07:55;4.88;;;1.98;;
66628;SDS011;53532;53.084;6.352;2022-09-03T14:10:26;3.67;;;1.73;;
66628;SDS011;53532;53.084;6.352;2022-09-03T14:13:01;4.55;;;1.80;;
66628;SDS011;53532;53.084;6.352;2022-09-03T14:15:30;7.82;;;2.10;;
66628;SDS011;53532;53.084;6.352;2022-09-03T14:18:01;2.67;;;1.60;;
66628;SDS011;53532;53.084;6.352;2022-09-03T14:20:29;5.45;;;1.95;;
66628;SDS011;53532;53.084;6.352;2022-09-03T14:22:58;6.10;;;2.33;;
66628;SDS011;53532;53.084;6.352;2022-09-03T14:25:28;5.68;;;2.00;;
66628;SDS011;53532;53.084;6.352;2022-09-03T14:27:54;5.93;;;2.20;;
66628;SDS011;53532;53.084;6.352;2022-09-03T14:30:27;3.88;;;1.90;;
66628;SDS011;53532;53.084;6.352;2022-09-03T14:32:57;3.80;;;2.00;;
66628;SDS011;53532;53.084;6.352;2022-09-03T14:37:59;5.78;;;1.80;;
66628;SDS011;53532;53.084;6.352;2022-09-03T14:40:28;3.63;;;1.75;;
66628;SDS011;53532;53.084;6.352;2022-09-03T14:42:59;4.78;;;2.03;;
66628;SDS011;53532;53.084;6.352;2022-09-03T14:45:41;6.32;;;2.10;;
66628;SDS011;53532;53.084;6.352;2022-09-03T14:48:24;4.25;;;2.13;;
66628;SDS011;53532;53.084;6.352;2022-09-03T14:50:59;6.18;;;1.98;;
66628;SDS011;53532;53.084;6.352;2022-09-03T14:53:37;4.30;;;1.92;;
66628;SDS011;53532;53.084;6.352;2022-09-03T14:56:20;5.85;;;2.00;;
66628;SDS011;53532;53.084;6.352;2022-09-03T14:58:53;5.37;;;1.97;;
66628;SDS011;53532;53.084;6.352;2022-09-03T15:01:26;5.25;;;2.10;;
66628;SDS011;53532;53.084;6.352;2022-09-03T15:04:06;4.90;;;2.05;;
66628;SDS011;53532;53.084;6.352;2022-09-03T15:06:39;5.63;;;2.00;;
66628;SDS011;53532;53.084;6.352;2022-09-03T15:09:21;5.10;;;1.88;;
66628;SDS011;53532;53.084;6.352;2022-09-03T15:11:49;5.10;;;2.22;;
66628;SDS011;53532;53.084;6.352;2022-09-03T15:14:18;4.28;;;1.90;;
66628;SDS011;53532;53.084;6.352;2022-09-03T15:16:47;4.85;;;2.10;;
66628;SDS011;53532;53.084;6.352;2022-09-03T15:19:18;5.07;;;2.30;;
66628;SDS011;53532;53.084;6.352;2022-09-03T15:21:56;5.55;;;2.00;;
66628;SDS011;53532;53.084;6.352;2022-09-03T15:24:29;5.43;;;1.90;;
66628;SDS011;53532;53.084;6.352;2022-09-03T15:27:01;3.65;;;1.88;;